^^
Station Historical Data
Daily Summary for February 12, 2017 Units:  English    Metric   Both
« Previous Day
Next Day »
Daily Weekly Monthly Yearly Custom
  High: Low: Average:
Temperature: 34.3 °F 27.4 °F 31 °F
Dew Point: 31.5 °F 24.3 °F 28.6 °F
Humidity: 96% 80% 91%
Wind Speed: 2.0mph 0.0mph 0.3mph
Wind Gust: 9.0mph - -
Wind- - South
Pressure: 30.14 in 29.61 in -
Precipitation: 0.00 in    
Historical Graphs
 
 
Tabular Data for February 12, 2017
Time Temperature Dew Point Pressure Wind Wind Speed Wind Gust Humidity Rainfall Rate (Hourly) Conditions
00:00 34.3 °F 29.0 °F 30.12 in Calm   1.0 mph 81% 0.00 in RA
00:10 34.3 °F 29.4 °F 30.12 in Calm   1.0 mph 82% 0.00 in CLR
00:20 34.0 °F 29.4 °F 30.13 in Calm   1.0 mph 83% 0.00 in CLR
00:30 34.0 °F 30.0 °F 30.13 in Calm   1.0 mph 85% 0.00 in CLR
00:40 33.8 °F 30.1 °F 30.13 in Calm   1.0 mph 86% 0.00 in CLR
00:50 33.6 °F 29.9 °F 30.13 in Calm   1.0 mph 86% 0.00 in CLR
01:00 33.5 °F 30.0 °F 30.13 in Calm     87% 0.00 in CLR
01:10 33.5 °F 30.4 °F 30.13 in Calm     88% 0.00 in CLR
01:20 33.6 °F 30.4 °F 30.13 in Calm     88% 0.00 in CLR
01:30 33.5 °F 30.6 °F 30.14 in Calm     89% 0.00 in CLR
01:40 33.5 °F 30.6 °F 30.13 in Calm     89% 0.00 in CLR
01:50 33.5 °F 30.6 °F 30.14 in Calm     89% 0.00 in CLR
02:00 33.5 °F 30.6 °F 30.14 in Calm     89% 0.00 in CLR
02:10 33.3 °F 30.4 °F 30.14 in Calm   1.0 mph 89% 0.00 in BKN
02:20 33.1 °F 30.2 °F 30.14 in Calm   1.0 mph 89% 0.00 in BKN
02:30 33.0 °F 30.4 °F 30.14 in Calm   1.0 mph 90% 0.00 in BKN
02:40 33.0 °F 30.4 °F 30.13 in Calm   2.0 mph 90% 0.00 in BKN
02:50 32.9 °F 30.3 °F 30.13 in Calm   3.0 mph 90% 0.00 in BKN
03:00 32.8 °F 30.2 °F 30.12 in Calm   3.0 mph 90% 0.00 in BKN
03:10 32.5 °F 29.6 °F 30.13 in Calm   2.0 mph 89% 0.00 in BKN
03:20 32.3 °F 29.2 °F 30.13 in Calm   3.0 mph 88% 0.00 in BKN
03:30 32.2 °F 29.0 °F 30.12 in Calm   2.0 mph 88% 0.00 in BKN
03:40 32.1 °F 28.7 °F 30.12 in Calm   2.0 mph 87% 0.00 in BKN
03:50 32.1 °F 28.6 °F 30.12 in Calm   3.0 mph 87% 0.00 in BKN
04:00 32.0 °F 28.3 °F 30.12 in ENE 1.0 mph 5.0 mph 86% 0.00 in BKN
04:10 31.8 °F 27.8 °F 30.12 in Calm   9.0 mph 85% 0.00 in BKN
04:20 31.7 °F 27.1 °F 30.13 in NE 1.0 mph 4.0 mph 83% 0.00 in BKN
04:30 31.6 °F 26.7 °F 30.13 in Calm   3.0 mph 82% 0.00 in BKN
04:40 31.5 °F 26.7 °F 30.13 in Calm   3.0 mph 82% 0.00 in BKN
04:50 31.4 °F 26.2 °F 30.13 in Calm   3.0 mph 81% 0.00 in BKN
05:00 31.2 °F 26.1 °F 30.13 in Calm   4.0 mph 81% 0.00 in BKN
05:10 31.0 °F 25.9 °F 30.13 in Calm   4.0 mph 81% 0.00 in BKN
05:20 30.8 °F 26.0 °F 30.13 in Calm   1.0 mph 82% 0.00 in BKN
05:30 30.6 °F 25.8 °F 30.13 in NW 1.0 mph 3.0 mph 82% 0.00 in BKN
05:40 30.4 °F 25.3 °F 30.13 in Calm   4.0 mph 81% 0.00 in BKN
05:50 30.2 °F 25.1 °F 30.13 in Calm   4.0 mph 81% 0.00 in BKN
06:00 30.1 °F 25.0 °F 30.14 in Calm   7.0 mph 81% 0.00 in BKN
06:10 29.9 °F 24.5 °F 30.14 in Calm   2.0 mph 80% 0.00 in OVC
06:20 29.7 °F 24.3 °F 30.13 in Calm   2.0 mph 80% 0.00 in OVC
06:50 29.2 °F 24.4 °F 30.10 in ENE 2.0 mph 6.0 mph 82% 0.00 in OVC
07:00 29.1 °F 24.9 °F 30.10 in NE 1.0 mph 6.0 mph 84% 0.00 in OVC
07:10 28.9 °F 24.7 °F 30.09 in ENE 1.0 mph 5.0 mph 84% 0.00 in -RA
07:20 28.8 °F 24.9 °F 30.09 in Calm   6.0 mph 85% 0.00 in -RA
07:30 28.8 °F 25.1 °F 30.09 in Calm   2.0 mph 86% 0.00 in -RA
07:40 28.7 °F 25.0 °F 30.09 in NE 1.0 mph 4.0 mph 86% 0.00 in -RA
07:50 28.6 °F 24.9 °F 30.10 in ENE 1.0 mph 4.0 mph 86% 0.00 in -RA
08:00 28.5 °F 25.1 °F 30.11 in Calm   4.0 mph 87% 0.00 in -RA
08:10 28.5 °F 25.1 °F 30.12 in Calm   3.0 mph 87% 0.00 in -RA
08:20 28.3 °F 25.2 °F 30.11 in Calm   1.0 mph 88% 0.00 in -RA
08:30 28.2 °F 25.4 °F 30.10 in Calm   5.0 mph 89% 0.00 in -RA
08:40 27.9 °F 25.3 °F 30.09 in Calm   3.0 mph 90% 0.00 in -RA
08:50 27.9 °F 25.3 °F 30.09 in Calm   5.0 mph 90% 0.00 in -RA
09:00 27.7 °F 25.2 °F 30.10 in NNE 1.0 mph 2.0 mph 90% 0.00 in -RA
09:10 27.5 °F 25.0 °F 30.09 in Calm   2.0 mph 90% 0.00 in -SN
09:20 27.6 °F 25.3 °F 30.08 in Calm   3.0 mph 91% 0.00 in -SN
09:30 27.5 °F 25.2 °F 30.07 in Calm   3.0 mph 91% 0.00 in -SN
09:40 27.5 °F 25.2 °F 30.06 in Calm   5.0 mph 91% 0.00 in -SN
09:50 27.4 °F 24.9 °F 30.06 in Calm   4.0 mph 90% 0.00 in -SN
10:00 27.5 °F 25.2 °F 30.06 in Calm   2.0 mph 91% 0.00 in -SN
10:10 27.5 °F 25.0 °F 30.06 in NNW 1.0 mph 5.0 mph 90% 0.00 in -SN
10:20 27.4 °F 24.9 °F 30.07 in North 1.0 mph 3.0 mph 90% 0.00 in -SN
10:30 27.6 °F 25.3 °F 30.06 in Calm   2.0 mph 91% 0.00 in -SN
10:40 27.6 °F 25.3 °F 30.04 in Calm   2.0 mph 91% 0.00 in -SN
11:00 27.5 °F 25.2 °F 30.01 in Calm   6.0 mph 91% 0.00 in -SN
11:30 27.9 °F 25.8 °F 29.96 in East 1.0 mph 5.0 mph 92% 0.00 in -SN
12:51 29.6 °F 27.6 °F 29.90 in Calm   4.0 mph 92% 0.00 in CLR
13:30 30.4 °F 28.6 °F 29.85 in Calm   3.0 mph 93% 0.00 in -SN
13:40 30.6 °F 28.8 °F 29.84 in NNE 1.0 mph 5.0 mph 93% 0.00 in -SN
13:50 30.7 °F 28.9 °F 29.83 in Calm   4.0 mph 93% 0.00 in -SN
14:00 30.8 °F 29.0 °F 29.82 in NNW 1.0 mph 6.0 mph 93% 0.00 in -SN
14:10 30.9 °F 29.4 °F 29.82 in Calm   3.0 mph 94% 0.00 in -SN
14:20 31.0 °F 29.5 °F 29.81 in NE 1.0 mph 4.0 mph 94% 0.00 in -SN
14:30 31.2 °F 29.7 °F 29.80 in Calm   2.0 mph 94% 0.00 in -SN
14:40 31.4 °F 29.9 °F 29.79 in Calm   3.0 mph 94% 0.00 in -SN
14:50 31.5 °F 30.0 °F 29.79 in Calm   5.0 mph 94% 0.00 in -SN
15:00 31.7 °F 30.2 °F 29.79 in ENE 1.0 mph 3.0 mph 94% 0.00 in -SN
15:10 31.8 °F 30.3 °F 29.79 in NNE 1.0 mph 3.0 mph 94% 0.00 in -SN
15:20 32.0 °F 30.5 °F 29.77 in Calm   1.0 mph 94% 0.00 in -SN
15:30 32.3 °F 31.0 °F 29.76 in Calm   1.0 mph 95% 0.00 in -SN
15:40 32.5 °F 31.2 °F 29.75 in Calm   2.0 mph 95% 0.00 in -SN
15:50 32.5 °F 31.2 °F 29.75 in Calm   4.0 mph 95% 0.00 in -SN
16:10 32.7 °F 31.4 °F 29.72 in Calm   2.0 mph 95% 0.00 in -SN
16:20 32.7 °F 31.4 °F 29.72 in NNW 1.0 mph 4.0 mph 95% 0.00 in -SN
16:30 32.8 °F 31.5 °F 29.72 in Calm   2.0 mph 95% 0.00 in -SN
16:40 32.8 °F 31.5 °F 29.71 in Calm   2.0 mph 95% 0.00 in -SN
16:50 32.8 °F 31.5 °F 29.71 in Calm   3.0 mph 95% 0.00 in -SN
17:00 32.8 °F 31.5 °F 29.70 in Calm   2.0 mph 95% 0.00 in -SN
17:10 32.8 °F 31.5 °F 29.73 in Calm   2.0 mph 95% 0.00 in -SN
17:40 32.5 °F 31.2 °F 29.73 in Calm   2.0 mph 95% 0.00 in -SN
17:50 32.3 °F 31.0 °F 29.72 in NW 1.0 mph 3.0 mph 95% 0.00 in -SN
18:00 32.0 °F 30.7 °F 29.73 in North 1.0 mph 5.0 mph 95% 0.00 in -SN
18:10 31.8 °F 30.5 °F 29.73 in North 1.0 mph 4.0 mph 95% 0.00 in -SN
18:20 31.8 °F 30.5 °F 29.73 in North 1.0 mph 5.0 mph 95% 0.00 in -SN
18:30 31.8 °F 30.7 °F 29.72 in NW 1.0 mph 3.0 mph 96% 0.00 in -SN
18:40 31.8 °F 30.8 °F 29.73 in North 1.0 mph 4.0 mph 96% 0.00 in -SN
18:50 31.7 °F 30.7 °F 29.73 in North 2.0 mph 7.0 mph 96% 0.00 in -SN
19:00 31.7 °F 30.7 °F 29.72 in Calm   6.0 mph 96% 0.00 in -SN
19:10 31.7 °F 30.7 °F 29.72 in NNW 1.0 mph 5.0 mph 96% 0.00 in -SN
19:20 31.7 °F 30.7 °F 29.72 in North 1.0 mph 5.0 mph 96% 0.00 in -SN
19:30 31.7 °F 30.7 °F 29.72 in Calm   3.0 mph 96% 0.00 in -SN
19:40 31.7 °F 30.7 °F 29.71 in Calm   4.0 mph 96% 0.00 in -SN
19:50 31.8 °F 30.8 °F 29.72 in North 1.0 mph 4.0 mph 96% 0.00 in -SN
20:00 31.8 °F 30.8 °F 29.71 in Calm   4.0 mph 96% 0.00 in -SN
20:10 31.7 °F 30.7 °F 29.71 in NW 1.0 mph 2.0 mph 96% 0.00 in -SN
20:20 31.7 °F 30.7 °F 29.70 in NNW 1.0 mph 5.0 mph 96% 0.00 in -SN
20:40 31.7 °F 30.7 °F 29.70 in Calm   2.0 mph 96% 0.00 in -SN
20:50 31.7 °F 30.7 °F 29.69 in NE 1.0 mph 5.0 mph 96% 0.00 in -SN
21:00 31.7 °F 30.7 °F 29.69 in Calm   2.0 mph 96% 0.00 in -SN
21:10 31.7 °F 30.7 °F 29.68 in Calm   1.0 mph 96% 0.00 in -SN
21:20 31.7 °F 30.7 °F 29.68 in Calm   5.0 mph 96% 0.00 in -SN
21:30 31.6 °F 30.6 °F 29.68 in Calm   5.0 mph 96% 0.00 in -SN
21:40 31.6 °F 30.6 °F 29.67 in NNW 1.0 mph 3.0 mph 96% 0.00 in -SN
21:50 31.6 °F 30.6 °F 29.67 in Calm   2.0 mph 96% 0.00 in -SN
22:00 31.5 °F 30.5 °F 29.66 in North 1.0 mph 2.0 mph 96% 0.00 in -SN
22:20 31.2 °F 30.2 °F 29.65 in Calm   1.0 mph 96% 0.00 in -SN
22:30 31.0 °F 30.0 °F 29.65 in Calm   1.0 mph 96% 0.00 in -SN
22:40 30.8 °F 29.8 °F 29.65 in Calm     96% 0.00 in -SN
22:50 30.5 °F 29.5 °F 29.64 in Calm     96% 0.00 in -SN
23:00 30.3 °F 29.3 °F 29.63 in Calm     96% 0.00 in -SN
23:10 29.9 °F 28.9 °F 29.63 in Calm     96% 0.00 in -SN
23:20 29.6 °F 28.6 °F 29.62 in Calm     96% 0.00 in -SN
23:30 29.4 °F 28.4 °F 29.62 in Calm     96% 0.00 in -SN
23:40 29.3 °F 28.3 °F 29.62 in Calm   1.0 mph 96% 0.00 in -SN
23:50 29.8 °F 28.8 °F 29.61 in Calm   1.0 mph 96% 0.00 in -SN
TarryTown NY Weather
Compliments of Weather Underground - 1.5 mb